X  Close Metar Aviation Weather Data     EHGG Eelde Airport
Temperature
11°C Temperature
6°C Dewpoint
72% Humidity



Wind
14 KM/H
9 MPH
4 M/S
8 KTS



10°
N
Current Conditions

Overcast Overcast
Pressure 1026.92 (hPa) - 30.32 (inHg)
Visibility 6.2 (mile) - 10 (km)
Airport
Airport-code EHGG

Location: Eelde Airport
Distance: 40 (km)

Metar:
EHGG 300055Z AUTO 01008KT 310V050 9999 OVC018 11/06 Q1027

Time: 30-05-2023 02:55 CEST